Time;durP1;ratioP1;P1;durP2;ratioP2;P2;SDS_P1;SDS_P2;PMS_P1;PMS_P2;Temp;Humidity;BMP_temperature;BMP_pressure;BME280_temperature;BME280_humidity;BME280_pressure;Samples;Min_cycle;Max_cycle;Signal;HPM_P1;HPM_P2
2023/03/20 00:01:22;;;;;;;3.23;2.93;;;11.30;99.90;;;;;;5054393;28;20527;-71
2023/03/20 00:03:49;;;;;;;8.67;4.13;;;11.30;99.90;;;;;;5042400;28;20504;-69
2023/03/20 00:06:20;;;;;;;4.53;3.93;;;11.30;99.90;;;;;;5049206;28;20552;-71
2023/03/20 00:08:47;;;;;;;3.40;3.10;;;11.30;99.90;;;;;;5015319;28;20466;-71
2023/03/20 00:11:35;;;;;;;3.70;3.40;;;11.30;99.90;;;;;;5035083;28;20861;-71
2023/03/20 00:14:02;;;;;;;3.67;3.27;;;11.30;99.90;;;;;;5015789;28;20477;-72
2023/03/20 00:16:33;;;;;;;3.00;2.70;;;11.30;99.90;;;;;;5030358;28;20468;-70
2023/03/20 00:18:59;;;;;;;6.07;3.90;;;11.30;99.90;;;;;;5035091;28;21082;-71
2023/03/20 00:21:26;;;;;;;4.33;3.60;;;11.30;99.90;;;;;;5037371;28;20468;-71
2023/03/20 00:23:53;;;;;;;3.80;3.40;;;11.30;99.90;;;;;;5023530;28;20225;-71
2023/03/20 00:26:19;;;;;;;5.57;4.00;;;11.20;99.90;;;;;;5033122;28;20493;-70
2023/03/20 00:28:47;;;;;;;4.73;3.37;;;11.10;99.90;;;;;;5020298;28;20567;-71
2023/03/20 00:31:24;;;;;;;3.83;2.93;;;11.10;99.90;;;;;;5002003;28;20479;-71
2023/03/20 00:33:53;;;;;;;4.77;3.60;;;11.10;99.90;;;;;;5028553;28;20474;-71
2023/03/20 00:36:19;;;;;;;4.17;3.77;;;11.10;99.90;;;;;;4999637;28;20457;-72
2023/03/20 00:38:45;;;;;;;5.50;3.97;;;11.10;99.90;;;;;;5041510;28;20449;-71
2023/03/20 00:41:51;;;;;;;4.50;3.10;;;11.10;99.90;;;;;;5033886;28;20547;-71
2023/03/20 00:44:48;;;;;;;9.57;3.80;;;11.10;99.90;;;;;;5044139;28;20221;-70
2023/03/20 00:47:19;;;;;;;3.70;3.40;;;11.20;99.90;;;;;;5004685;28;20459;-69
2023/03/20 00:49:48;;;;;;;5.60;3.50;;;11.20;99.90;;;;;;5025071;28;20973;-71
2023/03/20 00:52:17;;;;;;;3.97;3.57;;;11.20;99.90;;;;;;5009708;28;20916;-71
2023/03/20 00:54:43;;;;;;;4.90;3.93;;;11.20;99.90;;;;;;5025454;28;20451;-71
2023/03/20 00:57:18;;;;;;;4.60;3.77;;;11.10;99.90;;;;;;5032853;28;20460;-69
2023/03/20 00:59:58;;;;;;;6.33;3.77;;;11.00;99.90;;;;;;5013942;28;20472;-70
2023/03/20 01:02:27;;;;;;;3.70;3.00;;;11.00;99.90;;;;;;5019111;28;20468;-71
2023/03/20 01:04:53;;;;;;;4.20;3.70;;;11.00;99.90;;;;;;5046482;28;20989;-71
2023/03/20 01:07:19;;;;;;;4.43;3.70;;;11.00;99.90;;;;;;5019706;28;20453;-71
2023/03/20 01:09:46;;;;;;;4.80;3.00;;;11.10;99.90;;;;;;5050725;28;20504;-70
2023/03/20 01:12:13;;;;;;;6.17;4.07;;;11.00;99.90;;;;;;5024132;28;20217;-70
2023/03/20 01:14:40;;;;;;;5.67;4.33;;;11.00;99.90;;;;;;5015016;28;20955;-71
2023/03/20 01:17:16;;;;;;;4.43;3.40;;;10.90;99.90;;;;;;5003867;28;20551;-71
2023/03/20 01:19:42;;;;;;;4.10;3.70;;;11.00;99.90;;;;;;5008533;28;20447;-71
2023/03/20 01:22:08;;;;;;;5.20;4.20;;;10.90;99.90;;;;;;5032755;28;20459;-69
2023/03/20 01:24:34;;;;;;;5.00;3.53;;;10.90;99.90;;;;;;5012587;28;20220;-70
2023/03/20 01:27:02;;;;;;;5.30;3.90;;;10.90;99.90;;;;;;5028836;28;20660;-70
2023/03/20 01:29:31;;;;;;;5.60;5.00;;;10.90;99.90;;;;;;5008002;28;20216;-70
2023/03/20 01:31:57;;;;;;;7.50;4.20;;;10.90;99.90;;;;;;5020525;28;20458;-70
2023/03/20 01:34:24;;;;;;;7.43;4.97;;;10.90;99.90;;;;;;5032475;28;20510;-71
2023/03/20 01:36:53;;;;;;;5.13;3.83;;;10.80;99.90;;;;;;5026656;28;20464;-72
2023/03/20 01:39:27;;;;;;;8.07;4.57;;;10.80;99.90;;;;;;5047968;28;20537;-70
2023/03/20 01:41:53;;;;;;;6.37;4.47;;;10.80;99.90;;;;;;5046648;28;20448;-71
2023/03/20 01:44:23;;;;;;;5.57;4.30;;;10.90;99.90;;;;;;5012693;28;20475;-70
2023/03/20 01:46:54;;;;;;;6.17;4.53;;;10.90;99.90;;;;;;5030800;28;20449;-69
2023/03/20 01:49:20;;;;;;;9.90;4.20;;;10.70;99.90;;;;;;5039509;28;20542;-70
2023/03/20 01:51:49;;;;;;;5.10;4.57;;;10.60;99.90;;;;;;5029692;28;20446;-70
2023/03/20 01:54:26;;;;;;;5.20;3.90;;;10.60;99.90;;;;;;5020039;28;20467;-70
2023/03/20 01:57:09;;;;;;;5.00;3.73;;;10.70;99.90;;;;;;5023649;28;20532;-70
2023/03/20 01:59:46;;;;;;;4.80;4.07;;;10.80;99.90;;;;;;5043782;28;20441;-71
2023/03/20 02:02:20;;;;;;;5.50;4.87;;;10.90;99.90;;;;;;5028631;28;20472;-71
2023/03/20 02:04:48;;;;;;;6.50;4.40;;;10.90;99.90;;;;;;5031310;28;20452;-73
2023/03/20 02:07:20;;;;;;;7.90;5.70;;;10.80;99.90;;;;;;5051703;28;20455;-71
2023/03/20 02:10:15;;;;;;;7.77;5.10;;;10.80;99.90;;;;;;5044114;28;20487;-71
2023/03/20 02:13:03;;;;;;;7.33;4.57;;;10.70;99.90;;;;;;5023372;28;20471;-71
2023/03/20 02:15:35;;;;;;;6.10;4.63;;;10.70;99.90;;;;;;5012656;28;20455;-71
2023/03/20 02:18:12;;;;;;;5.73;4.93;;;10.60;99.90;;;;;;5017267;28;20549;-69
2023/03/20 02:21:11;;;;;;;6.87;4.77;;;10.50;99.90;;;;;;5011353;28;20459;-71
2023/03/20 02:24:08;;;;;;;6.47;4.63;;;10.60;99.90;;;;;;5000615;28;20495;-71
2023/03/20 02:26:38;;;;;;;7.63;5.27;;;10.60;99.90;;;;;;5018246;28;20469;-70
2023/03/20 02:29:04;;;;;;;6.50;4.50;;;10.50;99.90;;;;;;5014719;28;20459;-71
2023/03/20 02:31:42;;;;;;;6.60;5.17;;;10.50;99.90;;;;;;5031327;28;20468;-71
2023/03/20 02:34:28;;;;;;;6.27;4.83;;;10.70;99.90;;;;;;5014781;28;20223;-71
2023/03/20 02:37:15;;;;;;;6.30;4.87;;;10.80;99.90;;;;;;5020558;28;20478;-69
2023/03/20 02:39:50;;;;;;;8.43;5.20;;;10.80;99.90;;;;;;5038686;28;20446;-69
2023/03/20 02:42:32;;;;;;;7.83;4.80;;;10.90;99.90;;;;;;5021910;28;20460;-70
2023/03/20 02:45:26;;;;;;;7.37;5.37;;;10.90;99.90;;;;;;5015668;28;20455;-70
2023/03/20 02:48:26;;;;;;;6.70;5.40;;;10.80;99.90;;;;;;5029576;28;20486;-70
2023/03/20 02:51:10;;;;;;;5.33;4.37;;;10.80;99.90;;;;;;5027198;28;20443;-71
2023/03/20 02:53:55;;;;;;;7.40;4.83;;;10.80;99.90;;;;;;5022292;28;20523;-70
2023/03/20 02:56:24;;;;;;;9.47;5.40;;;10.90;99.90;;;;;;5024215;28;20454;-70
2023/03/20 02:59:18;;;;;;;5.70;4.43;;;10.80;99.90;;;;;;5016283;28;20442;-70
2023/03/20 03:01:50;;;;;;;7.63;5.10;;;10.80;99.90;;;;;;5010933;28;20460;-70
2023/03/20 03:04:20;;;;;;;6.80;4.77;;;10.80;99.90;;;;;;5014036;28;20546;-69
2023/03/20 03:06:49;;;;;;;6.43;5.30;;;10.60;99.90;;;;;;5021078;28;20478;-70
2023/03/20 03:09:31;;;;;;;6.70;5.27;;;10.50;99.90;;;;;;5029201;28;20813;-69
2023/03/20 03:12:24;;;;;;;8.00;5.00;;;10.60;99.90;;;;;;5046096;28;20465;-70
2023/03/20 03:15:00;;;;;;;5.00;4.40;;;10.70;99.90;;;;;;5019857;28;20529;-70
2023/03/20 03:17:29;;;;;;;8.50;4.60;;;10.70;99.90;;;;;;5022644;28;20455;-71
2023/03/20 03:20:04;;;;;;;7.37;5.03;;;10.70;99.90;;;;;;5012454;28;20551;-70
2023/03/20 03:22:33;;;;;;;7.30;5.50;;;10.60;99.90;;;;;;5012992;28;20466;-70
2023/03/20 03:24:59;;;;;;;7.07;5.30;;;10.50;99.90;;;;;;5012671;28;21150;-71
2023/03/20 03:27:33;;;;;;;7.50;5.83;;;10.50;99.90;;;;;;5011791;28;20928;-69
2023/03/20 03:30:03;;;;;;;7.30;4.53;;;10.50;99.90;;;;;;5003104;28;20473;-71
2023/03/20 03:32:35;;;;;;;8.37;5.10;;;10.50;99.90;;;;;;5038518;28;20466;-71
2023/03/20 03:35:04;;;;;;;8.43;6.40;;;10.50;99.90;;;;;;5029762;28;20466;-70
2023/03/20 03:37:49;;;;;;;7.23;5.70;;;10.50;99.90;;;;;;5028059;28;20535;-70
2023/03/20 03:40:40;;;;;;;10.23;6.00;;;10.40;99.90;;;;;;5027812;28;20519;-70
2023/03/20 03:43:32;;;;;;;6.97;5.17;;;10.30;99.90;;;;;;5023418;28;20482;-70
2023/03/20 03:46:32;;;;;;;7.03;5.67;;;10.30;99.90;;;;;;5045093;28;21193;-70
2023/03/20 03:48:58;;;;;;;7.30;4.93;;;10.40;99.90;;;;;;5012070;28;20467;-69
2023/03/20 03:51:28;;;;;;;6.80;5.40;;;10.50;99.90;;;;;;5013966;28;20475;-69
2023/03/20 03:54:12;;;;;;;8.00;5.90;;;10.40;99.90;;;;;;5028705;28;20476;-70
2023/03/20 03:56:41;;;;;;;8.73;5.40;;;10.40;99.90;;;;;;5046300;28;20457;-69
2023/03/20 03:59:16;;;;;;;6.70;5.30;;;10.50;99.90;;;;;;5023581;28;20516;-70
2023/03/20 04:01:43;;;;;;;6.40;4.70;;;10.60;99.90;;;;;;5023062;28;20539;-70
2023/03/20 04:04:12;;;;;;;7.63;5.90;;;10.60;99.90;;;;;;5012560;28;20859;-70
2023/03/20 04:06:37;;;;;;;10.73;6.00;;;10.70;99.90;;;;;;5032604;28;20964;-70
2023/03/20 04:09:05;;;;;;;8.67;5.80;;;10.70;99.90;;;;;;5045745;28;20474;-69
2023/03/20 04:11:31;;;;;;;8.77;5.03;;;10.80;99.90;;;;;;5016732;28;20858;-70
2023/03/20 04:13:56;;;;;;;6.70;5.13;;;10.80;99.90;;;;;;5033102;28;20618;-72
2023/03/20 04:16:23;;;;;;;8.07;6.13;;;10.80;99.90;;;;;;5022591;28;20224;-71
2023/03/20 04:18:50;;;;;;;10.60;6.40;;;10.80;99.90;;;;;;5031792;28;20214;-70
2023/03/20 04:21:16;;;;;;;11.63;6.37;;;10.80;99.90;;;;;;5029890;28;20465;-70
2023/03/20 04:23:43;;;;;;;13.13;7.90;;;10.60;99.90;;;;;;5026543;28;20451;-70
2023/03/20 04:26:09;;;;;;;14.50;8.93;;;10.50;99.90;;;;;;5013495;28;20449;-69
2023/03/20 04:28:35;;;;;;;14.07;8.30;;;10.60;99.90;;;;;;5002957;28;20224;-70
2023/03/20 04:31:31;;;;;;;16.23;9.40;;;10.60;99.90;;;;;;5040699;28;20455;-70
2023/03/20 04:34:15;;;;;;;14.83;8.60;;;10.60;99.90;;;;;;5043829;28;20478;-71
2023/03/20 04:36:49;;;;;;;23.37;10.50;;;10.60;99.90;;;;;;5016918;28;20447;-70
2023/03/20 04:39:16;;;;;;;18.37;10.07;;;10.70;99.90;;;;;;5032399;28;20530;-70
2023/03/20 04:41:42;;;;;;;18.20;8.80;;;10.70;99.90;;;;;;5032134;28;20539;-70
2023/03/20 04:44:08;;;;;;;16.37;9.83;;;10.80;99.90;;;;;;5016446;28;20213;-70
2023/03/20 04:46:34;;;;;;;16.27;9.77;;;10.80;99.90;;;;;;5033072;28;20479;-71
2023/03/20 04:49:03;;;;;;;15.90;10.70;;;10.80;99.90;;;;;;5031459;28;20455;-71
2023/03/20 04:51:29;;;;;;;16.50;9.67;;;10.80;99.90;;;;;;5015610;28;20490;-71
2023/03/20 04:53:55;;;;;;;17.60;10.43;;;10.80;99.90;;;;;;5032442;28;20463;-71
2023/03/20 04:56:21;;;;;;;23.50;10.57;;;10.80;99.90;;;;;;5026232;28;20217;-71
2023/03/20 04:58:48;;;;;;;18.30;11.27;;;10.80;99.90;;;;;;5029257;28;20521;-71
2023/03/20 05:01:15;;;;;;;22.40;11.70;;;10.80;99.90;;;;;;5023845;28;20904;-70
2023/03/20 05:03:41;;;;;;;18.47;11.87;;;10.80;99.90;;;;;;5018791;28;20542;-71
2023/03/20 05:06:08;;;;;;;18.13;11.10;;;10.80;99.90;;;;;;5031870;28;20301;-70
2023/03/20 05:08:35;;;;;;;24.40;12.90;;;10.80;99.90;;;;;;5037840;28;20458;-71
2023/03/20 05:11:01;;;;;;;25.00;12.00;;;10.90;99.90;;;;;;5023278;28;20558;-71
2023/03/20 05:13:59;;;;;;;30.73;14.63;;;10.80;99.90;;;;;;5022976;28;20639;-70
2023/03/20 05:16:44;;;;;;;21.70;12.17;;;10.80;99.90;;;;;;5027829;28;20458;-71
2023/03/20 05:19:33;;;;;;;24.97;12.30;;;10.80;99.90;;;;;;5023194;28;20468;-71
2023/03/20 05:22:22;;;;;;;30.43;14.43;;;10.80;99.90;;;;;;5032903;28;20485;-71
2023/03/20 05:24:55;;;;;;;23.37;13.40;;;10.80;99.90;;;;;;5005367;28;20498;-70
2023/03/20 05:27:26;;;;;;;27.20;13.97;;;10.80;99.90;;;;;;5010813;28;20478;-70
2023/03/20 05:30:15;;;;;;;33.10;15.63;;;10.80;99.90;;;;;;5021275;28;20530;-70
2023/03/20 05:32:53;;;;;;;31.23;15.70;;;10.80;99.90;;;;;;5013980;28;20464;-70
2023/03/20 05:35:27;;;;;;;35.57;17.27;;;10.90;99.90;;;;;;5019865;28;20477;-71
2023/03/20 05:38:11;;;;;;;32.80;15.27;;;10.80;99.90;;;;;;5026585;28;20476;-71
2023/03/20 05:40:58;;;;;;;35.13;15.47;;;10.90;99.90;;;;;;5004049;28;20822;-70
2023/03/20 05:43:33;;;;;;;30.20;16.90;;;10.80;99.90;;;;;;5001497;28;20483;-71
2023/03/20 05:46:31;;;;;;;37.00;16.87;;;10.80;99.90;;;;;;5018387;28;20505;-71
2023/03/20 05:48:56;;;;;;;39.17;18.53;;;10.80;99.90;;;;;;5017127;28;20471;-71
2023/03/20 05:51:42;;;;;;;38.20;17.57;;;10.80;99.90;;;;;;4992826;28;20220;-72
2023/03/20 05:54:27;;;;;;;37.47;19.17;;;10.80;99.90;;;;;;5026463;28;20508;-70
2023/03/20 05:57:06;;;;;;;32.30;16.20;;;10.80;99.90;;;;;;5007626;28;20498;-71
2023/03/20 05:59:43;;;;;;;34.07;17.20;;;10.80;99.90;;;;;;5026257;28;20444;-71
2023/03/20 06:02:25;;;;;;;27.23;15.00;;;10.80;99.90;;;;;;5028272;28;21031;-71
2023/03/20 06:05:00;;;;;;;34.83;17.30;;;10.80;99.90;;;;;;5016422;28;20469;-71
2023/03/20 06:07:34;;;;;;;36.93;17.70;;;10.80;99.90;;;;;;5022831;28;20547;-71
2023/03/20 06:10:05;;;;;;;33.17;17.13;;;10.80;99.90;;;;;;5029374;28;20477;-71
2023/03/20 06:12:31;;;;;;;36.90;18.03;;;10.80;99.90;;;;;;5015331;28;20525;-71
2023/03/20 06:14:57;;;;;;;36.57;17.60;;;10.90;99.90;;;;;;5025729;28;20457;-70
2023/03/20 06:17:23;;;;;;;35.13;16.80;;;10.80;99.90;;;;;;5021262;28;20204;-69
2023/03/20 06:19:55;;;;;;;32.13;16.50;;;10.90;99.90;;;;;;5030967;28;20815;-71
2023/03/20 06:22:21;;;;;;;32.93;16.90;;;10.90;99.90;;;;;;5025469;28;20471;-69
2023/03/20 06:24:47;;;;;;;36.50;18.93;;;10.90;99.90;;;;;;5012183;28;20451;-71
2023/03/20 06:27:13;;;;;;;32.87;17.30;;;10.90;99.90;;;;;;5005608;28;20216;-71
2023/03/20 06:29:39;;;;;;;37.80;16.57;;;10.80;99.90;;;;;;5023586;28;20447;-71
2023/03/20 06:32:19;;;;;;;37.20;19.67;;;10.80;99.90;;;;;;5026307;28;20368;-70
2023/03/20 06:34:48;;;;;;;40.27;18.40;;;10.80;99.90;;;;;;5027860;28;20452;-69
2023/03/20 06:37:14;;;;;;;36.10;16.67;;;10.70;99.90;;;;;;5028307;28;20449;-71
2023/03/20 06:39:40;;;;;;;36.50;18.33;;;10.70;99.90;;;;;;5029797;28;20441;-70
2023/03/20 06:42:11;;;;;;;41.23;17.10;;;10.60;99.90;;;;;;5022466;28;20980;-71
2023/03/20 06:44:39;;;;;;;43.53;19.37;;;10.50;99.90;;;;;;4991914;28;20452;-70
2023/03/20 06:47:13;;;;;;;40.80;17.47;;;10.50;99.90;;;;;;5023598;28;20531;-69
2023/03/20 06:49:39;;;;;;;34.30;17.03;;;10.60;99.90;;;;;;5002928;28;20985;-71
2023/03/20 06:52:07;;;;;;;40.27;17.30;;;10.70;99.90;;;;;;5007502;28;20456;-71
2023/03/20 06:54:35;;;;;;;36.20;18.50;;;10.80;99.90;;;;;;5034890;28;20447;-71
2023/03/20 06:57:01;;;;;;;32.13;16.90;;;10.80;99.90;;;;;;5028222;28;20477;-70
2023/03/20 06:59:27;;;;;;;36.53;18.40;;;10.70;99.90;;;;;;5013615;28;20982;-70
2023/03/20 07:01:55;;;;;;;39.87;17.47;;;10.70;99.90;;;;;;5014394;28;20308;-70
2023/03/20 07:04:22;;;;;;;35.10;16.30;;;10.70;99.90;;;;;;5029543;28;20451;-71
2023/03/20 07:06:51;;;;;;;33.43;17.13;;;10.70;99.90;;;;;;5027394;28;20814;-70
2023/03/20 07:09:17;;;;;;;33.73;17.83;;;10.60;99.90;;;;;;5022018;28;20455;-71
2023/03/20 07:11:43;;;;;;;34.43;19.30;;;10.60;99.90;;;;;;5012177;28;20220;-70
2023/03/20 07:14:10;;;;;;;31.67;16.67;;;10.50;99.90;;;;;;4992828;28;20221;-69
2023/03/20 07:16:56;;;;;;;36.50;16.97;;;10.60;99.90;;;;;;5022769;28;20536;-71
2023/03/20 07:19:22;;;;;;;35.73;17.33;;;10.60;99.90;;;;;;5017521;28;20551;-69
2023/03/20 07:21:56;;;;;;;33.90;16.90;;;10.50;99.90;;;;;;4995006;28;20247;-71
2023/03/20 07:24:22;;;;;;;30.93;15.20;;;10.60;99.90;;;;;;4990177;28;21046;-71
2023/03/20 07:26:48;;;;;;;34.80;16.80;;;10.60;99.90;;;;;;5025681;28;20529;-70
2023/03/20 07:29:14;;;;;;;28.00;13.73;;;10.70;99.90;;;;;;5013303;28;20212;-71
2023/03/20 07:31:40;;;;;;;32.83;14.67;;;10.70;99.90;;;;;;5005843;28;20249;-69
2023/03/20 07:34:11;;;;;;;31.30;14.70;;;10.80;99.90;;;;;;5010339;28;20232;-70
2023/03/20 07:36:38;;;;;;;29.07;14.07;;;10.80;99.90;;;;;;5013481;28;20526;-71
2023/03/20 07:39:04;;;;;;;28.50;13.37;;;10.70;99.90;;;;;;5013229;28;20530;-71
2023/03/20 07:41:31;;;;;;;26.87;13.90;;;10.80;99.90;;;;;;5032347;28;20213;-71
2023/03/20 07:44:01;;;;;;;34.60;14.30;;;10.80;99.90;;;;;;5017554;28;20547;-72
2023/03/20 07:46:50;;;;;;;26.10;12.43;;;10.80;99.90;;;;;;5015208;28;20821;-71
2023/03/20 07:49:19;;;;;;;26.03;14.03;;;10.90;99.90;;;;;;5029392;28;20461;-68
2023/03/20 07:51:46;;;;;;;24.17;12.67;;;10.90;99.90;;;;;;5043001;28;20226;-71
2023/03/20 07:54:13;;;;;;;30.13;14.20;;;10.90;99.90;;;;;;5017894;28;20471;-71
2023/03/20 07:56:39;;;;;;;23.87;13.13;;;10.90;99.90;;;;;;5032504;28;20457;-71
2023/03/20 07:59:05;;;;;;;32.57;13.40;;;10.90;99.90;;;;;;5025464;28;20483;-71
2023/03/20 08:01:31;;;;;;;29.83;14.53;;;10.90;99.90;;;;;;5030403;28;20220;-70
2023/03/20 08:03:56;;;;;;;27.63;14.10;;;10.90;99.90;;;;;;5011935;28;20458;-70
2023/03/20 08:06:22;;;;;;;31.53;13.37;;;10.90;99.90;;;;;;5025410;28;20215;-72
2023/03/20 08:08:51;;;;;;;24.43;11.93;;;10.80;99.90;;;;;;5033024;28;20215;-70
2023/03/20 08:11:17;;;;;;;23.33;11.77;;;10.90;99.90;;;;;;5040160;28;20249;-71
2023/03/20 08:13:43;;;;;;;24.33;12.37;;;10.90;99.90;;;;;;5029878;28;20970;-70
2023/03/20 08:16:09;;;;;;;21.93;12.30;;;10.90;99.90;;;;;;5012567;28;20438;-71
2023/03/20 08:18:35;;;;;;;26.10;13.43;;;11.00;99.90;;;;;;5050381;28;20651;-71
2023/03/20 08:21:02;;;;;;;25.87;12.83;;;10.90;99.90;;;;;;5033278;28;20315;-71
2023/03/20 08:23:28;;;;;;;27.63;12.47;;;10.70;99.90;;;;;;5015057;28;20725;-70
2023/03/20 08:25:53;;;;;;;25.13;12.17;;;10.70;99.90;;;;;;5020045;28;20461;-70
2023/03/20 08:28:20;;;;;;;23.97;11.70;;;10.80;99.90;;;;;;5021003;28;20270;-70
2023/03/20 08:30:46;;;;;;;20.20;10.70;;;10.90;99.90;;;;;;5026899;28;20214;-70
2023/03/20 08:33:12;;;;;;;26.27;11.57;;;10.90;99.90;;;;;;5035725;28;20570;-69
2023/03/20 08:35:38;;;;;;;24.70;11.40;;;11.00;99.90;;;;;;5017093;28;20552;-70
2023/03/20 08:38:04;;;;;;;27.37;12.77;;;11.10;99.90;;;;;;5035691;28;20216;-70
2023/03/20 08:40:30;;;;;;;26.53;12.47;;;11.10;99.90;;;;;;5013783;28;20294;-71
2023/03/20 08:42:56;;;;;;;24.67;12.23;;;11.10;99.90;;;;;;5026166;28;20457;-70
2023/03/20 08:45:24;;;;;;;22.03;13.20;;;11.20;99.90;;;;;;5024247;28;20500;-71
2023/03/20 08:47:51;;;;;;;24.67;12.07;;;11.20;99.90;;;;;;5007336;28;20460;-71
2023/03/20 08:50:17;;;;;;;23.50;10.80;;;11.20;99.90;;;;;;5042067;28;20842;-71
2023/03/20 08:52:43;;;;;;;23.30;11.53;;;11.30;99.90;;;;;;5042125;28;20477;-71
2023/03/20 08:55:10;;;;;;;19.87;11.20;;;11.30;99.90;;;;;;5041006;28;20574;-71
2023/03/20 08:57:37;;;;;;;18.97;11.03;;;11.40;99.90;;;;;;5036257;28;20223;-72
2023/03/20 09:00:07;;;;;;;22.70;10.67;;;11.40;99.90;;;;;;5040707;28;20490;-70
2023/03/20 09:02:33;;;;;;;20.67;10.00;;;11.50;99.90;;;;;;5032868;28;20571;-71
2023/03/20 09:04:59;;;;;;;14.63;9.60;;;11.50;99.90;;;;;;5017747;28;20480;-71
2023/03/20 09:07:25;;;;;;;14.20;8.53;;;11.60;99.90;;;;;;5038097;28;20302;-71
2023/03/20 09:09:50;;;;;;;17.40;8.33;;;11.70;99.90;;;;;;4997675;28;20231;-72
2023/03/20 09:12:16;;;;;;;16.13;7.33;;;11.70;99.90;;;;;;5022074;28;20683;-71
2023/03/20 09:14:41;;;;;;;12.03;7.70;;;11.80;99.90;;;;;;5037971;28;20223;-69
2023/03/20 09:17:07;;;;;;;14.03;7.63;;;12.00;99.90;;;;;;5021885;28;20213;-71
2023/03/20 09:19:34;;;;;;;12.57;6.50;;;12.00;99.90;;;;;;5037633;28;20249;-70
2023/03/20 09:22:00;;;;;;;11.60;6.97;;;12.10;99.90;;;;;;5025266;28;20425;-69
2023/03/20 09:24:26;;;;;;;12.50;6.77;;;12.00;99.90;;;;;;5048399;28;20475;-69
2023/03/20 09:26:51;;;;;;;11.53;6.40;;;12.00;99.90;;;;;;5021801;28;20504;-70
2023/03/20 09:29:17;;;;;;;11.57;6.00;;;12.00;99.90;;;;;;5048561;28;20218;-71
2023/03/20 09:31:43;;;;;;;10.40;6.80;;;12.10;99.90;;;;;;5038446;28;20230;-71
2023/03/20 09:34:09;;;;;;;7.30;5.20;;;12.10;99.90;;;;;;5023007;28;20476;-69
2023/03/20 09:36:36;;;;;;;9.20;5.57;;;12.10;99.90;;;;;;5035662;28;20227;-72
2023/03/20 09:39:01;;;;;;;7.00;5.17;;;12.10;99.90;;;;;;5043480;28;20888;-72
2023/03/20 09:41:27;;;;;;;10.00;6.17;;;12.10;99.90;;;;;;5006320;28;20505;-73
2023/03/20 09:44:11;;;;;;;11.43;5.43;;;12.10;99.90;;;;;;5028139;28;20254;-71
2023/03/20 09:47:06;;;;;;;7.67;4.70;;;12.10;99.90;;;;;;5024035;28;20700;-71
2023/03/20 09:50:05;;;;;;;7.37;4.43;;;12.10;99.90;;;;;;5038134;28;20550;-69
2023/03/20 09:52:35;;;;;;;8.70;4.60;;;12.20;99.90;;;;;;5019957;28;20487;-71
2023/03/20 09:55:07;;;;;;;8.37;4.30;;;12.20;99.90;;;;;;5020823;28;20476;-71
2023/03/20 09:57:52;;;;;;;7.13;5.10;;;12.40;99.90;;;;;;5039589;28;20976;-71
2023/03/20 10:00:24;;;;;;;10.23;5.40;;;12.40;99.90;;;;;;5039564;28;20475;-71
2023/03/20 10:02:53;;;;;;;6.90;5.37;;;12.50;99.90;;;;;;5021264;28;20536;-70
2023/03/20 10:05:27;;;;;;;7.60;5.10;;;12.60;99.90;;;;;;5025297;28;20468;-71
2023/03/20 10:07:56;;;;;;;5.90;5.30;;;12.60;99.90;;;;;;5023021;28;20460;-71
2023/03/20 10:10:36;;;;;;;8.43;7.50;;;12.70;99.90;;;;;;5041596;28;20455;-71
2023/03/20 10:13:30;;;;;;;11.40;8.70;;;12.90;99.90;;;;;;5026741;28;20481;-71
2023/03/20 10:16:06;;;;;;;9.53;7.70;;;12.90;99.90;;;;;;5027563;28;20983;-72
2023/03/20 10:18:37;;;;;;;8.07;6.80;;;13.10;99.90;;;;;;5018712;28;20462;-71
2023/03/20 10:21:29;;;;;;;9.43;8.40;;;13.40;99.90;;;;;;5022117;28;20462;-72
2023/03/20 10:24:04;;;;;;;8.97;5.90;;;13.70;99.90;;;;;;5035192;28;20469;-72
2023/03/20 10:26:34;;;;;;;7.17;5.40;;;13.80;99.90;;;;;;5010576;28;20467;-71
2023/03/20 10:29:03;;;;;;;4.70;4.30;;;13.80;99.90;;;;;;5017380;28;20479;-71
2023/03/20 10:31:48;;;;;;;7.27;4.50;;;14.10;99.90;;;;;;5015860;28;20524;-71
2023/03/20 10:34:40;;;;;;;6.73;4.50;;;14.40;99.90;;;;;;5025051;28;20795;-72
2023/03/20 10:37:29;;;;;;;8.57;6.63;;;14.70;99.90;;;;;;5037537;28;20469;-72
2023/03/20 10:40:26;;;;;;;7.40;5.43;;;14.70;99.90;;;;;;5045215;28;20466;-71
2023/03/20 10:42:56;;;;;;;5.23;4.07;;;14.70;99.90;;;;;;5026956;28;20463;-71
2023/03/20 10:45:29;;;;;;;5.10;4.00;;;14.70;99.90;;;;;;5029441;28;20466;-72
2023/03/20 10:47:57;;;;;;;8.63;4.20;;;14.80;99.90;;;;;;5014420;28;20474;-72
2023/03/20 10:50:30;;;;;;;4.83;3.70;;;14.70;99.90;;;;;;5035379;28;20466;-71
2023/03/20 10:52:58;;;;;;;6.43;3.83;;;14.70;99.90;;;;;;5025689;28;20558;-72
2023/03/20 10:55:30;;;;;;;6.90;4.03;;;14.70;99.90;;;;;;5028842;28;20972;-71
2023/03/20 10:58:09;;;;;;;9.00;6.30;;;14.70;99.90;;;;;;5043985;28;20441;-72
2023/03/20 11:00:35;;;;;;;21.00;17.33;;;14.80;99.90;;;;;;5021627;28;20501;-69
2023/03/20 11:03:01;;;;;;;20.70;17.57;;;14.80;99.90;;;;;;5040830;28;20984;-69
2023/03/20 11:05:47;;;;;;;6.43;4.90;;;14.80;99.90;;;;;;5020538;28;20238;-69
2023/03/20 11:08:15;;;;;;;3.70;2.47;;;14.80;99.90;;;;;;5025096;28;20220;-69
2023/03/20 11:10:42;;;;;;;3.13;2.10;;;14.70;99.90;;;;;;5002752;28;20466;-70
2023/03/20 11:13:29;;;;;;;2.70;2.23;;;14.70;99.90;;;;;;5028350;28;20561;-69
2023/03/20 11:15:55;;;;;;;3.27;2.80;;;14.60;99.90;;;;;;5025666;28;20993;-68
2023/03/20 11:18:24;;;;;;;2.00;1.87;;;14.70;99.90;;;;;;5046395;28;20434;-69
2023/03/20 11:20:57;;;;;;;3.00;2.20;;;14.60;99.90;;;;;;5026571;28;20482;-68
2023/03/20 11:23:31;;;;;;;2.40;2.20;;;14.60;99.90;;;;;;5014202;28;20513;-69
2023/03/20 11:26:10;;;;;;;3.93;2.80;;;14.70;99.90;;;;;;4994840;28;20889;-68
2023/03/20 11:28:57;;;;;;;2.70;2.37;;;14.70;99.90;;;;;;5010881;28;20475;-69
2023/03/20 11:31:49;;;;;;;2.47;2.27;;;14.80;99.90;;;;;;5023036;28;20502;-71
2023/03/20 11:34:15;;;;;;;2.83;2.47;;;14.90;99.90;;;;;;5016362;28;20543;-68
2023/03/20 11:36:58;;;;;;;3.70;2.50;;;14.90;99.90;;;;;;5027264;28;20454;-67
2023/03/20 11:39:26;;;;;;;5.10;2.73;;;15.10;99.90;;;;;;5017986;28;20217;-69
2023/03/20 11:41:54;;;;;;;4.30;2.00;;;15.10;99.90;;;;;;5014571;28;20483;-68
2023/03/20 11:44:24;;;;;;;3.27;2.70;;;15.10;99.90;;;;;;5030670;28;20473;-70
2023/03/20 11:47:10;;;;;;;3.70;2.40;;;15.10;99.90;;;;;;5045855;28;20488;-70
2023/03/20 11:49:57;;;;;;;3.70;2.77;;;15.20;99.90;;;;;;5037245;28;20543;-68
2023/03/20 11:52:32;;;;;;;2.33;2.13;;;15.30;99.90;;;;;;5027011;28;20466;-69
2023/03/20 11:55:02;;;;;;;2.93;2.40;;;15.30;99.90;;;;;;5013016;28;20527;-70
2023/03/20 11:57:32;;;;;;;3.00;2.13;;;15.40;99.90;;;;;;5049016;28;20472;-68
2023/03/20 12:00:20;;;;;;;1.80;1.57;;;15.40;99.90;;;;;;5029020;28;20470;-68
2023/03/20 12:02:46;;;;;;;2.80;2.40;;;15.30;99.90;;;;;;5024764;28;20513;-69
2023/03/20 12:05:29;;;;;;;4.63;2.77;;;15.30;99.90;;;;;;5048200;28;20498;-66
2023/03/20 12:08:21;;;;;;;3.10;2.40;;;15.40;99.90;;;;;;5027148;28;20263;-67
2023/03/20 12:11:05;;;;;;;4.60;2.50;;;15.40;99.90;;;;;;5009284;28;20529;-69
2023/03/20 12:13:35;;;;;;;3.33;2.57;;;15.50;99.90;;;;;;5021991;28;20474;-69
2023/03/20 12:16:10;;;;;;;2.63;2.40;;;15.50;99.90;;;;;;5026263;28;20956;-69
2023/03/20 12:18:45;;;;;;;3.73;2.00;;;15.60;99.90;;;;;;5043511;28;20446;-69
2023/03/20 12:21:14;;;;;;;3.00;2.07;;;15.60;99.90;;;;;;5007519;28;20845;-69
2023/03/20 12:23:46;;;;;;;2.40;2.20;;;15.50;99.90;;;;;;5028731;28;20846;-67
2023/03/20 12:26:12;;;;;;;2.30;2.10;;;15.50;99.90;;;;;;5048263;28;20525;-67
2023/03/20 12:28:45;;;;;;;2.60;2.23;;;15.40;99.90;;;;;;5023690;28;20452;-68
2023/03/20 12:31:26;;;;;;;1.77;1.67;;;15.50;99.90;;;;;;5026812;28;20458;-71
2023/03/20 12:34:01;;;;;;;2.50;2.30;;;15.40;99.90;;;;;;5049798;28;20481;-69
2023/03/20 12:36:36;;;;;;;2.17;1.93;;;15.30;99.90;;;;;;5011902;28;20490;-69
2023/03/20 12:39:04;;;;;;;3.37;2.93;;;15.30;99.90;;;;;;5029566;28;20585;-69
2023/03/20 12:41:45;;;;;;;3.87;2.07;;;15.20;99.90;;;;;;5027297;28;20503;-69
2023/03/20 12:44:12;;;;;;;2.93;2.60;;;15.20;99.90;;;;;;5028365;28;20466;-67
2023/03/20 12:46:52;;;;;;;2.60;2.40;;;15.20;99.90;;;;;;5047377;28;20593;-69
2023/03/20 12:49:52;;;;;;;2.30;2.10;;;15.20;99.90;;;;;;5031153;28;20827;-67
2023/03/20 12:52:35;;;;;;;2.87;2.20;;;15.00;99.90;;;;;;5046663;28;20569;-69
2023/03/20 12:55:35;;;;;;;1.90;1.70;;;15.00;99.90;;;;;;5043429;28;20459;-69
2023/03/20 12:58:22;;;;;;;2.93;2.47;;;14.90;99.90;;;;;;5017048;28;20544;-67
2023/03/20 13:00:51;;;;;;;2.03;1.93;;;14.90;99.90;;;;;;5024995;28;20474;-68
2023/03/20 13:03:51;;;;;;;2.87;2.27;;;14.90;99.90;;;;;;5031896;28;20500;-69
2023/03/20 13:06:35;;;;;;;7.40;3.60;;;14.80;99.90;;;;;;4986723;28;20517;-69
2023/03/20 13:09:31;;;;;;;8.30;5.20;;;14.90;99.90;;;;;;5014127;28;20455;-69